createdAt,value
2019-03-21T00:02:10.578Z,64.97
2019-03-21T00:07:11.899Z,58.92
2019-03-21T00:12:13.254Z,66.30
2019-03-21T00:17:32.506Z,57.20
2019-03-21T00:22:33.833Z,63.20
2019-03-21T00:27:35.226Z,68.12
2019-03-21T00:32:36.549Z,64.87
2019-03-21T00:37:38.008Z,64.35
2019-03-21T00:42:39.517Z,66.10
2019-03-21T00:47:41.204Z,63.58
2019-03-21T00:52:44.532Z,64.47
2019-03-21T00:57:47.033Z,69.17
2019-03-21T01:02:48.626Z,61.80
2019-03-21T01:07:50.077Z,63.87
2019-03-21T01:12:51.392Z,74.12
2019-03-21T01:17:54.609Z,62.38
2019-03-21T01:22:55.998Z,72.30
2019-03-21T01:27:57.322Z,68.97
2019-03-21T01:32:58.604Z,65.67
2019-03-21T01:38:00.258Z,75.37
2019-03-21T01:43:01.787Z,72.27
2019-03-21T01:48:05.942Z,65.22
2019-03-21T01:53:07.400Z,69.65
2019-03-21T01:58:08.924Z,71.77
2019-03-21T02:03:11.465Z,69.15
2019-03-21T02:08:13.127Z,60.60
2019-03-21T02:13:15.591Z,72.75
2019-03-21T02:18:17.090Z,60.50
2019-03-21T02:23:18.527Z,71.37
2019-03-21T02:28:19.952Z,76.57
2019-03-21T02:33:37.971Z,79.53
2019-03-21T02:38:39.686Z,71.67
2019-03-21T02:43:41.197Z,73.02
2019-03-21T02:48:44.155Z,65.50
2019-03-21T02:53:46.033Z,66.97
2019-03-21T02:58:49.592Z,69.47
2019-03-21T03:03:51.565Z,74.82
2019-03-21T03:08:52.960Z,96.70
2019-03-21T03:13:54.958Z,72.03
2019-03-21T03:18:56.479Z,80.45
2019-03-21T03:23:59.602Z,81.15
2019-03-21T03:29:01.120Z,80.87
2019-03-21T03:34:03.074Z,76.10
2019-03-21T03:39:06.528Z,78.65
2019-03-21T03:44:09.153Z,84.77
2019-03-21T03:49:11.307Z,80.40
2019-03-21T03:54:13.737Z,79.40
2019-03-21T03:59:15.426Z,72.60
2019-03-21T04:04:16.999Z,80.97
2019-03-21T04:09:18.345Z,90.83
2019-03-21T04:14:19.782Z,82.37
2019-03-21T04:19:39.917Z,76.50
2019-03-21T04:24:41.238Z,79.82
2019-03-21T04:29:42.655Z,73.65
2019-03-21T04:34:44.151Z,73.20
2019-03-21T04:39:45.780Z,71.85
2019-03-21T04:44:47.205Z,69.95
2019-03-21T04:49:49.590Z,85.62
2019-03-21T04:54:50.901Z,75.15
2019-03-21T04:59:52.337Z,80.62
2019-03-21T05:04:53.683Z,72.58
2019-03-21T05:09:55.020Z,69.03
2019-03-21T05:14:56.335Z,78.95
2019-03-21T05:19:57.732Z,84.13
2019-03-21T05:24:59.039Z,85.62
2019-03-21T05:30:00.467Z,106.47
2019-03-21T05:35:02.632Z,86.63
2019-03-21T05:40:14.734Z,99.70
2019-03-21T05:45:22.555Z,101.45
2019-03-21T05:50:23.966Z,115.05
2019-03-21T05:55:26.827Z,94.03
2019-03-21T06:00:40.268Z,104.80
2019-03-21T06:05:49.998Z,102.15
2019-03-21T06:10:51.268Z,96.08
2019-03-21T06:15:52.868Z,112.32
2019-03-21T06:21:07.738Z,113.00
2019-03-21T06:26:20.757Z,111.62
2019-03-21T06:31:22.220Z,101.07
2019-03-21T06:36:23.593Z,103.75
2019-03-21T06:41:32.764Z,107.22
2019-03-21T06:46:48.504Z,131.70
2019-03-21T06:51:39.829Z,121.40
2019-03-21T06:56:41.265Z,117.60
2019-03-21T07:01:43.569Z,110.95
2019-03-21T07:06:44.851Z,120.25
2019-03-21T07:11:46.304Z,119.70
2019-03-21T07:16:47.859Z,123.22
2019-03-21T07:21:49.220Z,133.18
2019-03-21T07:26:50.874Z,193.65
2019-03-21T07:31:52.286Z,164.85
2019-03-21T07:36:53.813Z,147.47
2019-03-21T07:41:55.135Z,134.63
2019-03-21T07:46:56.544Z,146.02
2019-03-21T07:51:57.975Z,113.92
2019-03-21T07:56:59.386Z,112.28
2019-03-21T08:02:00.832Z,105.50
2019-03-21T08:07:04.640Z,98.82
2019-03-21T08:12:06.859Z,97.25
2019-03-21T08:17:08.664Z,95.45
2019-03-21T08:22:11.198Z,95.30
2019-03-21T08:27:12.934Z,95.57
2019-03-21T08:32:15.969Z,89.05
2019-03-21T08:37:37.678Z,95.20
2019-03-21T08:42:39.078Z,91.78
2019-03-21T08:47:40.501Z,86.57
2019-03-21T08:52:42.066Z,86.87
2019-03-21T08:57:46.702Z,80.38
2019-03-21T09:02:48.540Z,72.32
2019-03-21T09:07:49.828Z,75.97
2019-03-21T09:12:51.203Z,72.12
2019-03-21T09:17:55.535Z,67.55
2019-03-21T09:22:57.230Z,73.28
2019-03-21T09:28:02.856Z,74.12
2019-03-21T09:33:01.886Z,75.57
2019-03-21T09:38:03.719Z,73.00
2019-03-21T09:43:05.253Z,73.17
2019-03-21T09:48:06.639Z,76.40
2019-03-21T09:53:08.452Z,85.60
2019-03-21T09:58:11.413Z,79.87
2019-03-21T10:03:14.321Z,79.25
2019-03-21T10:08:16.341Z,78.37
2019-03-21T10:13:17.933Z,76.25
2019-03-21T10:18:19.539Z,70.17
2019-03-21T10:23:21.048Z,67.95
2019-03-21T10:28:23.203Z,61.95
2019-03-21T10:33:24.720Z,60.58
2019-03-21T10:38:26.196Z,65.60
2019-03-21T10:43:27.730Z,58.68
2019-03-21T10:48:32.606Z,52.23
2019-03-21T10:53:34.081Z,56.40
2019-03-21T10:58:39.095Z,56.45
2019-03-21T11:03:40.735Z,51.05
2019-03-21T11:08:45.988Z,53.83
2019-03-21T11:13:47.798Z,46.80
2019-03-21T11:18:51.017Z,52.13
2019-03-21T11:23:52.972Z,44.83
2019-03-21T11:28:54.264Z,41.55
2019-03-21T11:33:55.706Z,46.37
2019-03-21T11:38:57.126Z,43.15
2019-03-21T11:43:58.848Z,41.28
2019-03-21T11:49:01.136Z,41.55
2019-03-21T11:54:03.163Z,44.83
2019-03-21T11:59:04.758Z,53.20
2019-03-21T12:04:06.315Z,47.40
2019-03-21T12:09:08.566Z,45.40
2019-03-21T12:14:11.828Z,45.15
2019-03-21T12:19:13.337Z,40.45
2019-03-21T12:24:16.263Z,40.28
2019-03-21T12:29:20.115Z,45.63
2019-03-21T12:34:21.970Z,43.33
2019-03-21T12:39:29.032Z,47.03
2019-03-21T12:44:30.470Z,41.45
2019-03-21T12:49:33.783Z,48.00
2019-03-21T12:54:35.321Z,45.50
2019-03-21T12:59:36.789Z,46.33
2019-03-21T13:04:40.263Z,45.60
2019-03-21T13:09:42.419Z,52.00
2019-03-21T13:14:43.884Z,43.33
2019-03-21T13:19:46.618Z,43.65
2019-03-21T13:24:48.254Z,44.55
2019-03-21T13:29:50.106Z,45.35
2019-03-21T13:34:51.420Z,46.28
2019-03-21T13:39:52.969Z,41.70
2019-03-21T13:44:54.342Z,42.30
2019-03-21T13:49:56.793Z,39.00
2019-03-21T14:00:20.981Z,37.93
2019-03-21T14:05:22.601Z,41.00
2019-03-21T14:10:43.014Z,36.70
2019-03-21T14:15:45.510Z,35.83
2019-03-21T14:20:47.270Z,38.55
2019-03-21T14:25:48.755Z,38.30
2019-03-21T14:30:52.013Z,42.62
2019-03-21T14:36:03.994Z,37.40
2019-03-21T14:41:07.612Z,39.65
2019-03-21T14:46:09.194Z,33.75
2019-03-21T14:51:10.567Z,37.85
2019-03-21T14:56:12.023Z,34.43
2019-03-21T15:01:16.446Z,35.48
2019-03-21T15:06:18.725Z,30.80
2019-03-21T15:11:21.452Z,33.90
2019-03-21T15:16:24.931Z,31.87
2019-03-21T15:21:27.279Z,31.37
2019-03-21T15:26:28.923Z,31.97
2019-03-21T15:31:31.071Z,30.85
2019-03-21T15:36:34.120Z,36.08
2019-03-21T15:41:55.555Z,35.10
2019-03-21T15:46:56.888Z,29.42
2019-03-21T15:52:00.224Z,35.20
2019-03-21T15:57:01.649Z,32.28
2019-03-21T16:02:03.404Z,30.50
2019-03-21T16:07:04.848Z,36.00
2019-03-21T16:12:09.529Z,37.75
2019-03-21T16:17:10.863Z,38.08
2019-03-21T16:22:14.137Z,38.45
2019-03-21T16:27:17.736Z,40.15
2019-03-21T16:32:19.093Z,41.88
2019-03-21T16:37:21.116Z,35.75
2019-03-21T16:42:22.539Z,43.15
2019-03-21T16:47:24.209Z,42.48
2019-03-21T16:52:25.827Z,46.02
2019-03-21T16:57:28.203Z,41.85
2019-03-21T17:02:30.620Z,44.00
2019-03-21T17:07:32.103Z,41.15
2019-03-21T17:12:37.419Z,41.63
2019-03-21T17:17:39.180Z,46.63
2019-03-21T17:22:40.653Z,44.03
2019-03-21T17:27:42.412Z,42.33
2019-03-21T17:32:44.653Z,46.33
2019-03-21T17:37:46.956Z,45.88
2019-03-21T17:42:48.395Z,44.95
2019-03-21T17:47:49.918Z,43.55
2019-03-21T17:52:52.594Z,47.85
2019-03-21T17:57:54.287Z,49.48
2019-03-21T18:02:56.651Z,50.85
2019-03-21T18:07:58.113Z,52.30
2019-03-21T18:13:01.802Z,60.12
2019-03-21T18:18:03.656Z,58.78
2019-03-21T18:23:05.276Z,59.03
2019-03-21T18:28:08.959Z,57.65
2019-03-21T18:33:12.179Z,51.42
2019-03-21T18:38:13.880Z,56.95
2019-03-21T18:43:15.238Z,57.23
2019-03-21T18:48:16.710Z,60.23
2019-03-21T18:53:18.168Z,59.45
2019-03-21T18:58:19.590Z,58.73
2019-03-21T19:03:20.922Z,61.77
2019-03-21T19:08:22.327Z,61.15
2019-03-21T19:13:23.708Z,65.62
2019-03-21T19:18:25.494Z,69.87
2019-03-21T19:23:30.047Z,67.92
2019-03-21T19:28:31.609Z,63.65
2019-03-21T19:33:33.324Z,69.35
2019-03-21T19:38:34.770Z,75.05
2019-03-21T19:43:36.523Z,76.87
2019-03-21T19:48:49.415Z,77.85
2019-03-21T19:53:41.939Z,67.50
2019-03-21T19:58:45.147Z,75.70
2019-03-21T20:03:47.200Z,70.08
2019-03-21T20:08:48.742Z,80.83
2019-03-21T20:13:50.464Z,77.03
2019-03-21T20:18:51.858Z,81.12
2019-03-21T20:23:53.387Z,83.40
2019-03-21T20:28:54.850Z,79.15
2019-03-21T20:33:57.064Z,79.37
2019-03-21T20:38:58.497Z,75.30
2019-03-21T20:44:00.053Z,84.45
2019-03-21T20:49:01.558Z,76.05
2019-03-21T20:54:04.791Z,79.10
2019-03-21T20:59:08.617Z,83.03
2019-03-21T21:04:12.124Z,72.12
2019-03-21T21:09:13.891Z,90.53
2019-03-21T21:14:15.269Z,95.50
2019-03-21T21:19:16.793Z,98.25
2019-03-21T21:24:18.475Z,110.60
2019-03-21T21:29:20.108Z,109.72
2019-03-21T21:34:21.524Z,111.42
2019-03-21T21:39:26.369Z,114.60
2019-03-21T21:44:27.945Z,106.25
2019-03-21T21:49:29.386Z,125.18
2019-03-21T21:54:30.833Z,101.92
2019-03-21T21:59:32.588Z,104.65
2019-03-21T22:04:34.706Z,110.57
2019-03-21T22:09:38.155Z,97.92
2019-03-21T22:14:40.084Z,98.42
2019-03-21T22:19:44.320Z,101.38
2019-03-21T22:24:57.389Z,95.50
2019-03-21T22:30:17.293Z,126.90
2019-03-21T22:35:18.961Z,103.92
2019-03-21T22:40:20.429Z,100.47
2019-03-21T22:45:21.935Z,107.67
2019-03-21T22:50:24.163Z,116.03
2019-03-21T22:55:25.875Z,123.85
2019-03-21T23:00:38.850Z,103.12
2019-03-21T23:05:40.472Z,102.12
2019-03-21T23:10:41.971Z,109.10
2019-03-21T23:15:43.803Z,115.67
2019-03-21T23:20:45.290Z,106.27
2019-03-21T23:25:46.874Z,128.78
2019-03-21T23:30:48.573Z,133.00
2019-03-21T23:35:50.991Z,112.20
2019-03-21T23:40:56.275Z,119.97
2019-03-21T23:45:57.698Z,125.85
2019-03-21T23:50:59.318Z,107.32
2019-03-21T23:56:00.933Z,120.50
